Time;durP1;ratioP1;P1;durP2;ratioP2;P2;SDS_P1;SDS_P2;PMS_P1;PMS_P2;Temp;Humidity;BMP_temperature;BMP_pressure;BME280_temperature;BME280_humidity;BME280_pressure;Samples;Min_cycle;Max_cycle;Signal;HPM_P1;HPM_P2
2023/10/29 00:01:42;;;;;;;3.30;1.60;;;3.20;99.90;;;;;;5051928;28;20033;-64
2023/10/29 00:04:09;;;;;;;4.03;1.92;;;3.20;99.90;;;;;;5056672;28;20492;-66
2023/10/29 00:06:36;;;;;;;1.92;1.60;;;3.20;99.90;;;;;;5053659;28;20408;-63
2023/10/29 00:09:03;;;;;;;2.80;2.10;;;3.10;99.90;;;;;;5054167;28;20106;-62
2023/10/29 00:11:30;;;;;;;6.18;1.83;;;3.10;99.90;;;;;;5051548;28;20041;-62
2023/10/29 00:13:58;;;;;;;3.78;1.83;;;3.00;99.90;;;;;;5050922;28;20388;-62
2023/10/29 00:16:25;;;;;;;1.67;1.45;;;3.00;99.90;;;;;;5054429;28;20045;-61
2023/10/29 00:18:52;;;;;;;3.10;1.88;;;3.00;99.90;;;;;;5057082;28;20159;-65
2023/10/29 00:21:18;;;;;;;3.58;2.00;;;3.00;99.90;;;;;;5052228;28;20065;-62
2023/10/29 00:23:45;;;;;;;2.28;2.00;;;3.00;99.90;;;;;;5060234;28;20045;-61
2023/10/29 00:26:12;;;;;;;3.22;2.92;;;3.00;99.90;;;;;;5047993;28;20410;-61
2023/10/29 00:28:44;;;;;;;3.75;2.22;;;3.00;99.90;;;;;;5045214;28;20103;-61
2023/10/29 00:31:11;;;;;;;3.63;3.13;;;3.00;99.90;;;;;;5041023;28;20079;-64
2023/10/29 00:33:38;;;;;;;4.78;2.75;;;3.00;99.90;;;;;;5052664;28;20056;-62
2023/10/29 00:36:05;;;;;;;4.32;2.25;;;3.00;99.90;;;;;;5054357;28;20099;-67
2023/10/29 00:38:33;;;;;;;3.72;3.40;;;3.00;99.90;;;;;;5056207;28;20048;-62
2023/10/29 00:41:00;;;;;;;3.80;2.72;;;2.90;99.90;;;;;;5054037;28;20045;-63
2023/10/29 00:43:26;;;;;;;6.68;2.78;;;2.90;99.90;;;;;;5051473;28;20055;-64
2023/10/29 00:45:54;;;;;;;3.70;2.38;;;2.90;99.90;;;;;;5049230;28;20111;-63
2023/10/29 00:48:24;;;;;;;2.60;2.40;;;2.90;99.90;;;;;;5050490;28;20045;-63
2023/10/29 00:50:52;;;;;;;;;;;2.90;99.90;;;;;;5052855;28;20037;-64
2023/10/29 00:53:20;;;;;;;3.20;2.50;;;2.90;99.90;;;;;;5051194;28;20389;-63
2023/10/29 00:55:48;;;;;;;6.00;2.92;;;2.90;99.90;;;;;;5052126;28;20130;-64
2023/10/29 00:58:16;;;;;;;3.50;3.20;;;2.90;99.90;;;;;;5032623;28;20037;-64
2023/10/29 01:00:44;;;;;;;3.78;2.72;;;2.80;99.90;;;;;;5053625;28;20049;-63
2023/10/29 01:03:12;;;;;;;11.10;3.08;;;2.80;99.90;;;;;;5044670;28;20099;-66
2023/10/29 01:05:39;;;;;;;2.65;2.35;;;2.80;99.90;;;;;;5053849;28;20132;-62
2023/10/29 01:08:07;;;;;;;5.28;3.38;;;2.80;99.90;;;;;;5052267;28;20055;-65
2023/10/29 01:10:34;;;;;;;4.10;3.78;;;2.80;99.90;;;;;;5060073;28;20445;-62
2023/10/29 01:13:01;;;;;;;4.20;2.92;;;2.80;99.90;;;;;;5033499;28;20435;-64
2023/10/29 01:15:28;;;;;;;3.17;2.25;;;2.80;99.90;;;;;;5048103;28;20064;-62
2023/10/29 01:17:55;;;;;;;5.93;2.97;;;2.80;99.90;;;;;;5052228;28;20044;-61
2023/10/29 01:20:22;;;;;;;5.72;2.10;;;2.80;99.90;;;;;;5037321;28;20049;-65
2023/10/29 01:22:49;;;;;;;4.65;2.85;;;2.80;99.90;;;;;;5049637;28;20607;-61
2023/10/29 01:25:17;;;;;;;3.70;2.53;;;2.80;99.90;;;;;;5057005;28;20036;-61
2023/10/29 01:27:44;;;;;;;3.05;2.20;;;2.80;99.90;;;;;;5047451;28;20319;-61
2023/10/29 01:30:12;;;;;;;3.53;2.53;;;2.80;99.90;;;;;;5037500;28;20067;-69
2023/10/29 01:32:39;;;;;;;5.28;2.17;;;2.80;99.90;;;;;;5055059;28;20033;-62
2023/10/29 01:35:07;;;;;;;4.85;2.40;;;2.80;99.90;;;;;;5060885;28;20079;-63
2023/10/29 01:37:34;;;;;;;7.82;2.60;;;2.70;99.90;;;;;;5057975;28;20111;-62
2023/10/29 01:40:01;;;;;;;3.15;2.42;;;2.70;99.90;;;;;;5037574;28;20055;-62
2023/10/29 01:42:28;;;;;;;3.28;2.75;;;2.70;99.90;;;;;;5056196;28;20048;-66
2023/10/29 01:44:54;;;;;;;3.60;1.67;;;2.70;99.90;;;;;;5054804;28;20107;-63
2023/10/29 01:47:21;;;;;;;2.60;1.92;;;2.70;99.90;;;;;;5050444;28;20048;-64
2023/10/29 01:49:48;;;;;;;1.90;1.45;;;2.70;99.90;;;;;;5049496;28;20052;-66
2023/10/29 01:52:15;;;;;;;3.13;1.92;;;2.70;99.90;;;;;;5049191;28;20498;-66
2023/10/29 01:54:43;;;;;;;1.80;1.58;;;2.70;99.90;;;;;;5050982;28;20690;-62
2023/10/29 01:57:11;;;;;;;4.30;2.10;;;2.70;99.90;;;;;;5054015;28;20044;-64
2023/10/29 01:59:37;;;;;;;2.50;1.70;;;2.70;99.90;;;;;;5033274;28;20470;-62
2023/10/29 02:02:05;;;;;;;1.50;1.40;;;2.70;99.90;;;;;;5036399;28;20051;-67
2023/10/29 02:04:33;;;;;;;5.28;2.08;;;2.70;99.90;;;;;;5053772;28;20044;-66
2023/10/29 02:07:01;;;;;;;2.30;1.58;;;2.70;99.90;;;;;;5045635;28;20100;-63
2023/10/29 02:09:28;;;;;;;1.75;1.23;;;2.60;99.90;;;;;;5053085;28;20063;-66
2023/10/29 02:11:55;;;;;;;3.03;1.63;;;2.60;99.90;;;;;;5033050;28;20087;-62
2023/10/29 02:14:22;;;;;;;2.47;1.63;;;2.60;99.90;;;;;;5055238;28;20044;-64
2023/10/29 02:16:49;;;;;;;1.55;1.45;;;2.60;99.90;;;;;;5056848;28;20077;-62
2023/10/29 02:19:16;;;;;;;1.85;1.55;;;2.60;99.90;;;;;;5050557;28;20041;-62
2023/10/29 02:21:43;;;;;;;5.03;2.15;;;2.60;99.90;;;;;;5053363;28;20124;-64
2023/10/29 02:24:10;;;;;;;2.47;1.63;;;2.60;99.90;;;;;;5019294;28;20132;-62
2023/10/29 02:26:37;;;;;;;3.22;1.48;;;2.60;99.90;;;;;;5054070;28;20865;-63
2023/10/29 02:29:04;;;;;;;2.08;1.58;;;2.60;99.90;;;;;;5049508;28;20052;-65
2023/10/29 02:31:31;;;;;;;3.08;1.77;;;2.60;99.90;;;;;;5050931;28;20044;-64
2023/10/29 02:33:58;;;;;;;1.38;1.27;;;2.60;99.90;;;;;;5052721;28;20056;-65
2023/10/29 02:36:25;;;;;;;3.72;1.73;;;2.60;99.90;;;;;;5051581;28;20091;-63
2023/10/29 02:38:51;;;;;;;3.90;2.05;;;2.60;99.90;;;;;;5049367;28;20080;-62
2023/10/29 02:41:18;;;;;;;2.53;1.67;;;2.60;99.90;;;;;;5033501;28;20533;-63
2023/10/29 02:43:45;;;;;;;3.63;1.80;;;2.60;99.90;;;;;;5054822;28;20552;-63
2023/10/29 02:46:12;;;;;;;4.57;1.65;;;2.60;99.90;;;;;;5048927;28;20045;-65
2023/10/29 02:48:40;;;;;;;2.17;1.83;;;2.60;99.90;;;;;;5028885;28;20692;-64
2023/10/29 02:51:12;;;;;;;2.33;1.30;;;2.60;99.90;;;;;;5048244;28;20479;-67
2023/10/29 02:53:39;;;;;;;3.15;1.65;;;2.60;99.90;;;;;;5051641;28;20094;-67
2023/10/29 02:56:06;;;;;;;2.63;1.63;;;2.60;99.90;;;;;;5050235;28;20063;-64
2023/10/29 02:58:34;;;;;;;3.08;1.60;;;2.60;99.90;;;;;;5029868;28;20122;-62
2023/10/29 03:01:08;;;;;;;2.15;1.95;;;2.60;99.90;;;;;;5016058;28;20064;-67
2023/10/29 03:03:36;;;;;;;4.50;1.80;;;2.60;99.90;;;;;;5044705;28;20554;-65
2023/10/29 03:06:08;;;;;;;1.88;1.10;;;2.60;99.90;;;;;;5054427;28;20052;-62
2023/10/29 03:08:36;;;;;;;1.45;1.35;;;2.60;99.90;;;;;;5053595;28;20477;-66
2023/10/29 03:11:03;;;;;;;7.70;1.50;;;2.60;99.90;;;;;;5049680;28;20040;-62
2023/10/29 03:13:30;;;;;;;2.08;1.70;;;2.60;99.90;;;;;;5050720;28;20041;-66
2023/10/29 03:15:58;;;;;;;1.38;1.27;;;2.60;99.90;;;;;;5047834;28;20041;-62
2023/10/29 03:18:25;;;;;;;1.40;1.30;;;2.60;99.90;;;;;;5055051;28;20068;-63
2023/10/29 03:20:53;;;;;;;2.00;1.30;;;2.60;99.90;;;;;;5053006;28;20072;-65
2023/10/29 03:23:21;;;;;;;1.48;1.10;;;2.60;99.90;;;;;;5048597;28;20052;-61
2023/10/29 03:25:48;;;;;;;2.45;1.40;;;2.60;99.90;;;;;;5050648;28;20045;-61
2023/10/29 03:28:16;;;;;;;1.83;1.40;;;2.60;99.90;;;;;;5037313;28;20495;-63
2023/10/29 03:30:42;;;;;;;2.38;1.30;;;2.70;99.90;;;;;;5031054;28;20064;-64
2023/10/29 03:33:10;;;;;;;2.05;1.55;;;2.60;99.90;;;;;;5039402;28;20096;-64
2023/10/29 03:35:37;;;;;;;2.17;1.63;;;2.70;99.90;;;;;;5050419;28;20052;-63
2023/10/29 03:38:04;;;;;;;1.65;1.20;;;2.70;99.90;;;;;;5054060;28;20044;-66
2023/10/29 03:40:31;;;;;;;3.05;1.65;;;2.70;99.90;;;;;;5055490;28;20045;-61
2023/10/29 03:42:58;;;;;;;2.22;1.92;;;2.70;99.90;;;;;;5052264;28;20387;-62
2023/10/29 03:45:25;;;;;;;2.63;1.98;;;2.70;99.90;;;;;;5056832;28;20068;-64
2023/10/29 03:47:52;;;;;;;1.73;1.48;;;2.70;99.90;;;;;;5056610;28;20048;-62
2023/10/29 03:50:19;;;;;;;2.33;1.80;;;2.70;99.90;;;;;;5051307;28;20434;-62
2023/10/29 03:52:46;;;;;;;4.72;1.10;;;2.70;99.90;;;;;;5038709;28;20081;-64
2023/10/29 03:55:13;;;;;;;6.03;2.55;;;2.70;99.90;;;;;;5033542;28;20060;-72
2023/10/29 03:57:40;;;;;;;2.42;1.52;;;2.70;99.90;;;;;;5055733;28;20049;-63
2023/10/29 04:00:08;;;;;;;1.65;1.52;;;2.70;99.90;;;;;;5057057;28;20040;-68
2023/10/29 04:02:39;;;;;;;2.42;1.42;;;2.70;99.90;;;;;;5055346;28;20124;-61
2023/10/29 04:05:06;;;;;;;2.67;1.33;;;2.70;99.90;;;;;;5057934;28;20107;-65
2023/10/29 04:07:37;;;;;;;5.85;1.40;;;2.70;99.90;;;;;;5055249;28;20511;-62
2023/10/29 04:10:04;;;;;;;1.65;1.25;;;2.70;99.90;;;;;;5051529;28;20048;-68
2023/10/29 04:12:32;;;;;;;1.83;1.58;;;2.70;99.90;;;;;;5049309;28;20048;-62
2023/10/29 04:14:59;;;;;;;1.52;1.42;;;2.70;99.90;;;;;;5032861;28;20053;-66
2023/10/29 04:17:26;;;;;;;2.72;1.80;;;2.70;99.90;;;;;;5055168;28;20117;-70
2023/10/29 04:19:53;;;;;;;1.80;1.45;;;2.60;99.90;;;;;;5056855;28;20059;-63
2023/10/29 04:22:20;;;;;;;2.28;1.67;;;2.60;99.90;;;;;;5053307;28;20040;-64
2023/10/29 05:32:39;;;;;;;3.42;1.20;;;2.70;99.90;;;;;;5090090;27;20051;-64
2023/10/29 05:35:07;;;;;;;2.10;1.45;;;2.70;99.90;;;;;;5034932;28;20457;-65
2023/10/29 05:37:35;;;;;;;1.40;1.20;;;2.60;99.90;;;;;;5030210;28;20550;-62
2023/10/29 05:40:04;;;;;;;2.00;1.58;;;2.70;99.90;;;;;;5035026;28;20076;-62
2023/10/29 05:42:34;;;;;;;1.60;1.50;;;2.70;99.90;;;;;;5034185;28;20077;-62
2023/10/29 05:45:01;;;;;;;1.42;1.10;;;2.70;99.90;;;;;;5028464;28;20122;-62
2023/10/29 05:47:28;;;;;;;2.38;1.73;;;2.70;99.90;;;;;;5034581;28;20040;-64
2023/10/29 05:49:55;;;;;;;1.33;1.20;;;2.70;99.90;;;;;;5033445;28;20105;-64
2023/10/29 05:52:22;;;;;;;2.25;1.48;;;2.70;99.90;;;;;;5032490;28;20042;-65
2023/10/29 05:54:49;;;;;;;2.20;1.50;;;2.70;99.90;;;;;;5027616;28;20099;-64
2023/10/29 05:57:16;;;;;;;2.55;1.90;;;2.70;99.90;;;;;;5008851;28;20106;-65
2023/10/29 05:59:43;;;;;;;4.57;1.98;;;2.70;99.90;;;;;;5030926;28;20128;-61
2023/10/29 06:02:11;;;;;;;4.15;2.17;;;2.70;99.90;;;;;;5029174;28;20037;-67
2023/10/29 06:04:38;;;;;;;2.10;1.77;;;2.70;99.90;;;;;;5030991;28;20049;-64
2023/10/29 06:07:05;;;;;;;4.60;2.15;;;2.70;99.90;;;;;;5026763;28;20110;-67
2023/10/29 06:09:32;;;;;;;2.95;1.73;;;2.70;99.90;;;;;;5031207;28;20042;-63
2023/10/29 06:11:59;;;;;;;3.25;2.65;;;2.70;99.90;;;;;;5029238;28;20447;-68
2023/10/29 06:14:26;;;;;;;1.70;1.60;;;2.70;99.90;;;;;;5027679;28;20056;-62
2023/10/29 06:16:56;;;;;;;4.20;3.00;;;2.80;99.90;;;;;;5029779;28;20077;-62
2023/10/29 06:19:38;;;;;;;4.95;2.78;;;2.80;99.90;;;;;;5029611;28;20037;-61
2023/10/29 06:22:06;;;;;;;2.47;1.65;;;2.80;99.90;;;;;;5026883;28;20049;-68
2023/10/29 06:24:33;;;;;;;3.58;2.38;;;2.80;99.90;;;;;;5031555;28;20495;-65
2023/10/29 06:27:00;;;;;;;2.83;2.20;;;2.80;99.90;;;;;;5030566;28;20045;-65
2023/10/29 06:29:27;;;;;;;4.32;2.08;;;2.80;99.90;;;;;;5032520;28;20037;-63
2023/10/29 06:31:54;;;;;;;5.43;2.38;;;2.80;99.90;;;;;;5028226;28;20124;-74
2023/10/29 06:34:22;;;;;;;2.65;1.80;;;2.90;99.90;;;;;;5049851;28;20057;-61
2023/10/29 06:36:49;;;;;;;2.50;1.67;;;2.90;99.90;;;;;;5047228;28;20045;-63
2023/10/29 06:39:16;;;;;;;2.33;1.60;;;2.90;99.90;;;;;;5050496;28;20044;-61
2023/10/29 06:41:44;;;;;;;5.63;2.10;;;2.90;99.90;;;;;;5047057;28;20045;-64
2023/10/29 06:44:10;;;;;;;2.25;1.42;;;3.00;99.90;;;;;;5050627;28;20044;-69
2023/10/29 06:46:37;;;;;;;1.83;1.65;;;3.00;99.90;;;;;;5042647;28;20490;-63
2023/10/29 06:49:04;;;;;;;2.95;1.67;;;3.00;99.90;;;;;;5051593;28;20039;-62
2023/10/29 06:51:31;;;;;;;3.08;2.05;;;3.00;99.90;;;;;;5048901;28;20071;-62
2023/10/29 06:53:58;;;;;;;2.65;1.35;;;3.10;99.90;;;;;;5047841;28;20080;-63
2023/10/29 06:56:25;;;;;;;3.45;1.77;;;3.10;99.90;;;;;;5046789;28;20040;-64
2023/10/29 06:58:52;;;;;;;2.78;2.15;;;3.10;99.90;;;;;;5051718;28;20036;-61
2023/10/29 07:01:19;;;;;;;2.55;1.70;;;3.20;99.90;;;;;;5054661;28;20099;-62
2023/10/29 07:03:46;;;;;;;2.00;1.88;;;3.20;99.90;;;;;;5044375;28;20045;-62
2023/10/29 07:06:16;;;;;;;3.75;1.90;;;3.30;99.90;;;;;;5048791;28;20525;-62
2023/10/29 07:08:45;;;;;;;3.15;2.63;;;3.30;99.90;;;;;;5049867;28;20487;-61
2023/10/29 07:11:12;;;;;;;1.33;1.23;;;3.30;99.90;;;;;;5050863;28;20623;-66
2023/10/29 07:13:39;;;;;;;3.22;1.77;;;3.30;99.90;;;;;;5050847;28;20139;-63
2023/10/29 07:16:06;;;;;;;1.85;1.40;;;3.40;99.90;;;;;;5047260;28;20040;-69
2023/10/29 07:18:35;;;;;;;2.35;1.35;;;3.40;99.90;;;;;;5054633;28;20367;-64
2023/10/29 07:21:03;;;;;;;1.65;0.95;;;3.50;99.90;;;;;;5058196;28;20055;-61
2023/10/29 07:23:30;;;;;;;1.90;1.52;;;3.40;99.90;;;;;;5046327;28;20053;-62
2023/10/29 07:25:57;;;;;;;1.00;0.80;;;3.50;99.90;;;;;;5057403;28;20110;-64
2023/10/29 07:28:23;;;;;;;2.05;1.35;;;3.50;99.90;;;;;;5048913;28;20479;-61
2023/10/29 07:30:50;;;;;;;2.47;1.33;;;3.50;99.90;;;;;;5048956;28;20505;-69
2023/10/29 07:33:17;;;;;;;1.55;1.35;;;3.60;99.90;;;;;;5052419;28;20126;-62
2023/10/29 07:35:45;;;;;;;1.58;1.10;;;3.60;99.90;;;;;;5050407;28;20047;-63
2023/10/29 07:38:12;;;;;;;3.90;2.95;;;3.70;99.90;;;;;;5053448;28;20040;-63
2023/10/29 07:40:39;;;;;;;1.15;1.08;;;3.70;99.90;;;;;;5047282;28;20049;-62
2023/10/29 07:43:06;;;;;;;1.67;1.42;;;3.80;99.90;;;;;;5055017;28;20510;-66
2023/10/29 07:45:33;;;;;;;3.65;1.27;;;3.80;99.90;;;;;;5055745;28;20049;-63
2023/10/29 07:48:00;;;;;;;1.52;1.40;;;3.90;99.90;;;;;;5045620;28;20647;-65
2023/10/29 07:50:28;;;;;;;2.83;1.40;;;3.90;99.90;;;;;;5048621;28;20064;-62
2023/10/29 07:52:55;;;;;;;3.50;1.40;;;3.90;99.90;;;;;;5048089;28;20045;-64
2023/10/29 07:55:22;;;;;;;1.27;1.17;;;3.90;99.90;;;;;;5047580;28;20739;-63
2023/10/29 07:57:49;;;;;;;1.10;1.00;;;4.00;99.90;;;;;;5050873;28;20140;-65
2023/10/29 08:00:17;;;;;;;2.17;0.98;;;4.00;99.90;;;;;;5051220;28;20052;-62
2023/10/29 08:02:44;;;;;;;1.35;1.15;;;4.00;99.90;;;;;;5050916;28;20049;-61
2023/10/29 08:05:11;;;;;;;2.67;0.75;;;4.10;99.90;;;;;;5047317;28;20037;-63
2023/10/29 08:07:39;;;;;;;5.25;1.15;;;4.10;99.90;;;;;;5050679;28;20044;-69
2023/10/29 08:10:07;;;;;;;4.35;1.35;;;4.10;99.90;;;;;;5049112;28;20037;-62
2023/10/29 08:12:34;;;;;;;1.73;0.90;;;4.20;99.90;;;;;;5055666;28;20054;-62
2023/10/29 08:15:02;;;;;;;3.17;1.00;;;4.20;99.90;;;;;;5046242;28;20135;-64
2023/10/29 08:17:30;;;;;;;3.72;1.08;;;4.20;99.90;;;;;;5051514;28;20048;-63
2023/10/29 08:19:58;;;;;;;1.13;0.98;;;4.30;99.90;;;;;;5051728;28;20035;-65
2023/10/29 08:22:26;;;;;;;2.70;1.05;;;4.30;99.90;;;;;;5049425;28;21040;-67
2023/10/29 08:24:54;;;;;;;4.80;3.28;;;4.40;99.90;;;;;;5059675;28;20041;-61
2023/10/29 08:27:21;;;;;;;2.97;1.30;;;4.50;99.90;;;;;;5053142;28;20080;-66
2023/10/29 08:29:49;;;;;;;1.15;0.98;;;4.50;99.90;;;;;;5053182;28;20037;-63
2023/10/29 08:32:17;;;;;;;1.33;1.15;;;4.60;99.90;;;;;;5052073;28;20115;-63
2023/10/29 08:34:44;;;;;;;1.42;0.90;;;4.70;99.90;;;;;;5051199;28;20056;-64
2023/10/29 08:37:12;;;;;;;1.90;1.30;;;4.80;99.90;;;;;;5055190;28;20060;-64
2023/10/29 08:39:39;;;;;;;2.00;0.80;;;4.90;99.90;;;;;;5058742;28;20476;-63
2023/10/29 08:42:06;;;;;;;1.02;0.90;;;4.90;99.90;;;;;;5054985;28;20071;-69
2023/10/29 08:44:33;;;;;;;1.63;1.27;;;5.00;99.90;;;;;;5055971;28;20048;-61
2023/10/29 08:47:00;;;;;;;1.73;0.98;;;5.00;99.90;;;;;;5051709;28;20045;-65
2023/10/29 08:49:27;;;;;;;1.65;0.60;;;5.00;99.90;;;;;;5059386;28;20141;-62
2023/10/29 08:51:53;;;;;;;3.42;1.60;;;5.00;99.90;;;;;;5056175;28;20613;-64
2023/10/29 08:54:23;;;;;;;2.55;1.13;;;5.10;99.90;;;;;;5055263;28;20055;-63
2023/10/29 08:56:50;;;;;;;1.27;0.80;;;5.10;99.90;;;;;;5054667;28;20094;-62
2023/10/29 08:59:17;;;;;;;0.82;0.82;;;5.10;99.90;;;;;;5047864;28;20124;-65
2023/10/29 09:01:44;;;;;;;1.63;1.13;;;5.10;99.90;;;;;;5053336;28;20103;-60
2023/10/29 09:04:11;;;;;;;1.33;0.82;;;5.10;99.90;;;;;;5056249;28;20127;-61
2023/10/29 09:06:39;;;;;;;1.70;1.02;;;5.10;99.90;;;;;;5056613;28;20045;-61
2023/10/29 09:09:06;;;;;;;1.30;0.93;;;5.20;99.90;;;;;;5052008;28;20498;-62
2023/10/29 09:11:33;;;;;;;1.25;1.02;;;5.20;99.90;;;;;;5055813;28;20090;-60
2023/10/29 09:14:01;;;;;;;1.33;0.90;;;5.20;99.90;;;;;;5055478;28;20091;-64
2023/10/29 09:16:28;;;;;;;0.95;0.90;;;5.20;99.90;;;;;;5052308;28;20152;-62
2023/10/29 09:18:55;;;;;;;1.15;0.95;;;5.30;99.90;;;;;;5054494;28;20044;-61
2023/10/29 09:21:21;;;;;;;0.80;0.80;;;5.30;99.90;;;;;;5034870;28;20068;-61
2023/10/29 09:23:48;;;;;;;3.58;1.10;;;5.40;99.90;;;;;;5047867;28;20448;-62
2023/10/29 09:26:16;;;;;;;1.83;1.02;;;5.40;99.90;;;;;;5049982;28;20056;-62
2023/10/29 09:28:43;;;;;;;1.02;0.80;;;5.40;99.90;;;;;;5054746;28;20029;-61
2023/10/29 09:31:20;;;;;;;0.93;0.75;;;5.40;99.90;;;;;;5051248;28;20037;-62
2023/10/29 09:33:47;;;;;;;1.15;0.90;;;5.50;99.90;;;;;;5052333;28;20053;-69
2023/10/29 09:36:14;;;;;;;2.35;2.05;;;5.50;99.90;;;;;;5053265;28;20056;-60
2023/10/29 09:38:41;;;;;;;1.20;1.10;;;5.60;99.90;;;;;;5048901;28;20076;-70
2023/10/29 09:41:09;;;;;;;3.58;1.20;;;5.60;99.90;;;;;;5054076;28;20036;-61
2023/10/29 09:43:42;;;;;;;1.38;1.05;;;5.70;99.90;;;;;;5052427;28;20037;-60
2023/10/29 09:46:10;;;;;;;0.98;0.90;;;5.70;99.90;;;;;;5052783;28;20055;-63
2023/10/29 09:48:39;;;;;;;0.95;0.85;;;5.80;99.90;;;;;;5057207;28;20096;-61
2023/10/29 09:51:06;;;;;;;1.45;1.20;;;5.80;99.90;;;;;;5057133;28;20391;-61
2023/10/29 09:53:39;;;;;;;1.55;1.10;;;5.90;99.90;;;;;;5048940;28;20052;-61
2023/10/29 09:56:09;;;;;;;1.92;1.10;;;5.90;99.90;;;;;;5054509;28;20048;-61
2023/10/29 09:58:36;;;;;;;1.75;1.33;;;5.90;99.90;;;;;;5050277;28;20434;-61
2023/10/29 10:01:04;;;;;;;1.15;0.95;;;5.90;99.90;;;;;;5054803;28;20068;-62
2023/10/29 10:03:31;;;;;;;1.40;1.10;;;6.00;99.90;;;;;;5054094;28;20521;-61
2023/10/29 10:05:59;;;;;;;1.38;1.00;;;6.00;99.90;;;;;;5052043;28;20045;-62
2023/10/29 10:08:28;;;;;;;1.35;0.85;;;6.00;99.90;;;;;;5051294;28;20049;-62
2023/10/29 10:10:56;;;;;;;1.30;0.98;;;6.00;99.90;;;;;;5052355;28;20211;-67
2023/10/29 10:13:43;;;;;;;3.20;0.95;;;6.10;99.90;;;;;;5049491;28;20057;-61
2023/10/29 10:16:12;;;;;;;1.80;1.70;;;6.10;99.90;;;;;;5049812;28;20051;-65
2023/10/29 10:18:50;;;;;;;1.42;0.70;;;6.10;99.90;;;;;;5051635;28;20051;-62
2023/10/29 10:21:20;;;;;;;1.83;1.10;;;6.10;99.90;;;;;;5056002;28;20036;-62
2023/10/29 10:23:49;;;;;;;1.33;1.02;;;6.10;99.90;;;;;;5047432;28;20045;-60
2023/10/29 10:26:26;;;;;;;2.60;0.70;;;6.10;99.90;;;;;;5053363;28;20430;-61
2023/10/29 10:28:58;;;;;;;1.52;0.95;;;6.10;99.90;;;;;;5052637;28;20423;-61
2023/10/29 10:31:27;;;;;;;2.92;0.80;;;6.20;99.90;;;;;;5050887;28;20067;-61
2023/10/29 10:34:16;;;;;;;1.75;1.10;;;6.20;99.90;;;;;;5056866;28;20056;-63
2023/10/29 10:36:45;;;;;;;0.82;0.80;;;6.20;99.90;;;;;;5052194;28;20091;-61
2023/10/29 10:39:12;;;;;;;1.20;1.00;;;6.30;99.90;;;;;;5050564;28;20033;-61
2023/10/29 10:41:44;;;;;;;0.88;0.70;;;6.30;99.90;;;;;;5054127;28;20037;-61
2023/10/29 10:44:16;;;;;;;1.50;1.10;;;6.30;99.90;;;;;;5050993;28;20103;-66
2023/10/29 10:46:54;;;;;;;1.88;1.10;;;6.30;99.90;;;;;;5049966;28;20119;-61
2023/10/29 10:49:22;;;;;;;1.35;1.25;;;6.30;99.90;;;;;;5055687;28;20049;-61
2023/10/29 10:51:54;;;;;;;1.25;1.02;;;6.40;99.90;;;;;;5046430;28;20124;-62
2023/10/29 10:54:22;;;;;;;1.17;0.80;;;6.40;99.90;;;;;;5053069;28;20045;-61
2023/10/29 10:56:51;;;;;;;0.95;0.90;;;6.50;99.90;;;;;;5053702;28;20450;-61
2023/10/29 10:59:20;;;;;;;1.38;1.00;;;6.50;99.90;;;;;;5054311;28;20051;-62
2023/10/29 11:01:48;;;;;;;1.40;0.60;;;6.60;99.90;;;;;;5051536;28;20868;-63
2023/10/29 11:04:16;;;;;;;5.43;1.38;;;6.60;99.90;;;;;;5049325;28;20080;-61
2023/10/29 11:06:45;;;;;;;0.88;0.77;;;6.60;99.90;;;;;;5049570;28;20043;-61
2023/10/29 11:09:13;;;;;;;2.70;0.95;;;6.60;99.90;;;;;;5055931;28;20036;-67
2023/10/29 11:11:48;;;;;;;5.22;0.70;;;6.70;99.90;;;;;;5046968;28;20498;-63
2023/10/29 11:14:17;;;;;;;2.30;1.58;;;6.60;99.90;;;;;;5049396;28;20048;-61
2023/10/29 11:16:50;;;;;;;1.00;0.90;;;6.60;99.90;;;;;;5049688;28;20056;-62
2023/10/29 11:19:39;;;;;;;1.00;0.63;;;6.60;99.90;;;;;;5045143;28;20047;-61
2023/10/29 11:22:18;;;;;;;0.98;0.73;;;6.60;99.90;;;;;;5046091;28;20119;-67
2023/10/29 11:25:05;;;;;;;1.25;1.00;;;6.60;99.90;;;;;;5047921;28;20426;-61
2023/10/29 11:27:34;;;;;;;0.60;0.50;;;6.50;99.90;;;;;;5050384;28;20505;-62
2023/10/29 11:30:22;;;;;;;1.33;0.80;;;6.50;99.90;;;;;;5048794;28;20048;-61
2023/10/29 11:33:12;;;;;;;1.27;0.70;;;6.60;99.90;;;;;;5046321;28;20098;-61
2023/10/29 11:35:40;;;;;;;0.82;0.82;;;6.50;99.90;;;;;;5052512;28;20045;-62
2023/10/29 11:38:30;;;;;;;0.75;0.68;;;6.50;99.90;;;;;;5050282;28;20044;-68
2023/10/29 11:40:58;;;;;;;0.30;0.30;;;6.50;99.90;;;;;;5051280;28;20068;-61
2023/10/29 11:43:25;;;;;;;1.20;0.68;;;6.50;99.90;;;;;;5055868;28;20090;-60
2023/10/29 11:45:55;;;;;;;1.00;0.75;;;6.50;99.90;;;;;;5053868;28;20041;-62
2023/10/29 11:48:22;;;;;;;3.13;0.77;;;6.50;99.90;;;;;;5050458;28;20483;-68
2023/10/29 11:51:10;;;;;;;2.10;0.70;;;6.50;99.90;;;;;;5051482;28;20494;-61
2023/10/29 11:53:38;;;;;;;2.45;0.63;;;6.40;99.90;;;;;;5050034;28;20053;-65
2023/10/29 11:56:09;;;;;;;1.33;0.60;;;6.50;99.90;;;;;;5048794;28;20045;-61
2023/10/29 11:58:37;;;;;;;0.82;0.73;;;6.50;99.90;;;;;;5050895;28;20045;-65
2023/10/29 12:01:04;;;;;;;0.80;0.73;;;6.40;99.90;;;;;;5057616;28;20166;-68
2023/10/29 12:03:31;;;;;;;1.20;0.60;;;6.40;99.90;;;;;;5055014;28;20049;-61
2023/10/29 12:05:59;;;;;;;0.80;0.65;;;6.50;99.90;;;;;;5060972;28;20257;-64
2023/10/29 12:08:27;;;;;;;1.08;1.02;;;6.50;99.90;;;;;;5048769;28;20052;-64
2023/10/29 12:10:55;;;;;;;1.25;1.10;;;6.50;99.90;;;;;;5053503;28;20056;-64
2023/10/29 12:13:22;;;;;;;4.13;1.52;;;6.50;99.90;;;;;;5055361;28;20123;-63
2023/10/29 12:15:57;;;;;;;2.30;0.90;;;6.50;99.90;;;;;;5051990;28;20430;-62
2023/10/29 12:18:25;;;;;;;0.88;0.82;;;6.60;99.90;;;;;;5033176;28;20494;-62
2023/10/29 12:21:06;;;;;;;0.75;0.75;;;6.50;99.90;;;;;;5051762;28;20391;-60
2023/10/29 12:23:35;;;;;;;0.88;0.82;;;6.50;99.90;;;;;;5036989;28;20520;-61
2023/10/29 12:26:09;;;;;;;0.75;0.75;;;6.50;99.90;;;;;;5054919;28;20048;-61
2023/10/29 12:28:37;;;;;;;2.47;0.90;;;6.50;99.90;;;;;;5050564;28;20076;-62
2023/10/29 12:31:04;;;;;;;1.08;0.95;;;6.50;99.90;;;;;;5051247;28;20065;-62
2023/10/29 12:33:36;;;;;;;0.82;0.63;;;6.50;99.90;;;;;;5052297;28;20068;-67
2023/10/29 12:36:05;;;;;;;1.10;1.00;;;6.50;99.90;;;;;;5052878;28;20103;-62
2023/10/29 12:38:37;;;;;;;1.20;0.70;;;6.50;99.90;;;;;;5060333;28;20391;-60
2023/10/29 12:41:14;;;;;;;1.85;0.82;;;6.50;99.90;;;;;;5053343;28;20040;-64
2023/10/29 12:43:42;;;;;;;1.30;0.73;;;6.50;99.90;;;;;;5053278;28;20037;-61
2023/10/29 12:46:11;;;;;;;0.80;0.80;;;6.40;99.90;;;;;;5055704;28;20440;-65
2023/10/29 12:49:00;;;;;;;1.40;1.15;;;6.40;99.90;;;;;;5049590;28;20498;-62
2023/10/29 12:51:35;;;;;;;1.45;0.90;;;6.40;99.90;;;;;;5057049;28;20049;-62
2023/10/29 12:54:13;;;;;;;1.63;1.23;;;6.40;99.90;;;;;;5051623;28;20178;-61
2023/10/29 12:57:11;;;;;;;0.90;0.75;;;6.40;99.90;;;;;;5051728;28;20048;-63
2023/10/29 12:59:39;;;;;;;1.27;1.10;;;6.40;99.90;;;;;;5051258;28;20083;-64
2023/10/29 13:02:06;;;;;;;1.23;1.13;;;6.40;99.90;;;;;;5049687;28;20048;-61
2023/10/29 13:04:35;;;;;;;1.58;0.98;;;6.30;99.90;;;;;;5050681;28;20048;-60
2023/10/29 13:07:08;;;;;;;1.55;0.80;;;6.30;99.90;;;;;;5050513;28;20045;-67
2023/10/29 13:09:39;;;;;;;3.13;1.25;;;6.30;99.90;;;;;;5053924;28;20044;-62
2023/10/29 13:12:10;;;;;;;0.80;0.80;;;6.20;99.90;;;;;;5051975;28;20036;-62
2023/10/29 13:14:39;;;;;;;2.55;1.88;;;6.20;99.90;;;;;;5052057;28;20128;-65
2023/10/29 13:17:09;;;;;;;0.98;0.95;;;6.20;99.90;;;;;;5058341;28;20049;-62
2023/10/29 13:19:36;;;;;;;;;;;6.20;99.90;;;;;;5052715;28;20446;-64
2023/10/29 13:22:05;;;;;;;2.92;1.70;;;6.20;99.90;;;;;;5057994;28;20302;-63
2023/10/29 13:24:32;;;;;;;0.60;0.60;;;6.10;99.90;;;;;;5049056;28;20683;-61
2023/10/29 13:27:01;;;;;;;1.40;1.15;;;6.10;99.90;;;;;;5053183;28;20045;-63
2023/10/29 13:29:28;;;;;;;1.98;1.13;;;6.10;99.90;;;;;;5049482;28;20056;-62
2023/10/29 13:31:55;;;;;;;0.82;0.80;;;6.10;99.90;;;;;;5054188;28;20120;-68
2023/10/29 13:34:22;;;;;;;0.80;0.75;;;6.10;99.90;;;;;;5050393;28;20511;-64
2023/10/29 13:36:49;;;;;;;1.05;0.70;;;6.10;99.90;;;;;;5043502;28;20048;-61
2023/10/29 13:39:16;;;;;;;2.72;1.58;;;6.10;99.90;;;;;;5050323;28;20519;-62
2023/10/29 13:41:48;;;;;;;1.00;0.85;;;6.10;99.90;;;;;;5055902;28;20049;-61
2023/10/29 13:44:16;;;;;;;1.48;1.13;;;6.00;99.90;;;;;;5051609;28;20522;-62
2023/10/29 13:46:44;;;;;;;1.45;0.70;;;6.00;99.90;;;;;;5048603;28;20095;-71
2023/10/29 13:49:10;;;;;;;2.78;0.95;;;6.00;99.90;;;;;;5055655;28;20128;-64
2023/10/29 13:51:38;;;;;;;3.25;1.48;;;6.00;99.90;;;;;;5048089;28;20041;-61
2023/10/29 13:54:05;;;;;;;1.20;1.00;;;6.00;99.90;;;;;;5052229;28;20044;-65
2023/10/29 13:56:32;;;;;;;0.73;0.68;;;6.10;99.90;;;;;;5053268;28;20525;-61
2023/10/29 13:58:59;;;;;;;1.38;1.15;;;6.10;99.90;;;;;;5051948;28;20048;-63
2023/10/29 14:01:26;;;;;;;4.53;1.10;;;6.10;99.90;;;;;;5054475;28;20045;-63
2023/10/29 14:03:55;;;;;;;1.10;0.90;;;6.10;99.90;;;;;;5056784;28;20054;-61
2023/10/29 14:06:22;;;;;;;1.15;0.82;;;6.10;99.90;;;;;;5047377;28;20049;-61
2023/10/29 14:08:49;;;;;;;6.38;0.90;;;6.10;99.90;;;;;;5048114;28;20048;-61
2023/10/29 14:11:17;;;;;;;1.35;0.95;;;6.10;99.90;;;;;;5049671;28;20048;-61
2023/10/29 14:13:45;;;;;;;3.40;2.53;;;6.10;99.90;;;;;;5050329;28;20047;-61